Time;durP1;ratioP1;P1;durP2;ratioP2;P2;SDS_P1;SDS_P2;PMS_P1;PMS_P2;Temp;Humidity;BMP_temperature;BMP_pressure;BME280_temperature;BME280_humidity;BME280_pressure;Samples;Min_cycle;Max_cycle;Signal;HPM_P1;HPM_P2
2022/07/29 00:01:21;;;;;;;0.57;0.10;;;21.20;54.00;;;;;;5113339;28;20051;-74
2022/07/29 00:03:47;;;;;;;0.20;0.10;;;21.20;54.00;;;;;;5113459;28;20044;-71
2022/07/29 00:06:13;;;;;;;0.55;0.10;;;21.20;54.00;;;;;;5112958;28;20092;-71
2022/07/29 00:08:39;;;;;;;0.45;0.15;;;21.20;54.00;;;;;;5113193;28;20402;-71
2022/07/29 00:11:04;;;;;;;0.28;0.10;;;21.20;54.00;;;;;;5112855;28;20046;-72
2022/07/29 00:13:30;;;;;;;0.22;0.10;;;21.20;54.00;;;;;;5112880;28;20040;-71
2022/07/29 00:15:55;;;;;;;0.25;0.10;;;21.20;54.80;;;;;;5113048;28;20046;-72
2022/07/29 00:18:21;;;;;;;0.68;0.10;;;21.20;54.00;;;;;;5112949;28;20039;-71
2022/07/29 00:20:47;;;;;;;0.20;0.10;;;21.20;54.00;;;;;;5112536;28;20467;-71
2022/07/29 00:23:12;;;;;;;1.08;0.10;;;21.20;54.10;;;;;;5112707;28;20467;-71
2022/07/29 00:25:38;;;;;;;0.15;0.03;;;21.20;54.10;;;;;;5114037;28;20038;-71
2022/07/29 00:28:04;;;;;;;0.90;0.10;;;21.10;54.00;;;;;;5112953;28;20459;-71
2022/07/29 00:30:29;;;;;;;0.20;0.10;;;21.20;54.10;;;;;;5113827;27;20040;-72
2022/07/29 00:32:55;;;;;;;2.83;0.10;;;21.20;54.10;;;;;;5112405;28;20043;-71
2022/07/29 00:35:52;;;;;;;0.38;0.10;;;21.20;54.00;;;;;;5112649;28;20055;-71
2022/07/29 00:38:06;;;;;;;0.77;0.10;;;21.20;54.10;;;;;;5112445;28;20498;-72
2022/07/29 00:40:32;;;;;;;0.82;0.10;;;21.10;54.00;;;;;;5113598;28;20032;-71
2022/07/29 00:42:57;;;;;;;0.68;0.10;;;21.10;54.00;;;;;;5112348;28;20092;-71
2022/07/29 00:45:23;;;;;;;1.05;0.10;;;21.10;54.00;;;;;;5112253;28;20036;-72
2022/07/29 00:47:49;;;;;;;0.28;0.10;;;21.20;54.10;;;;;;5112190;28;20044;-71
2022/07/29 00:50:14;;;;;;;0.30;0.10;;;21.10;54.00;;;;;;5112213;28;20035;-72
2022/07/29 00:52:42;;;;;;;1.25;0.10;;;21.10;54.00;;;;;;5113734;28;20087;-71
2022/07/29 00:55:11;;;;;;;0.30;0.10;;;21.10;54.00;;;;;;5112351;28;20035;-71
2022/07/29 00:57:38;;;;;;;0.75;0.10;;;21.10;54.00;;;;;;5111969;28;20054;-71
2022/07/29 01:00:06;;;;;;;0.30;0.05;;;21.10;54.00;;;;;;5113008;28;20055;-71
2022/07/29 01:02:31;;;;;;;0.60;0.10;;;21.10;54.10;;;;;;5112067;28;20039;-71
2022/07/29 01:04:57;;;;;;;0.50;0.10;;;21.10;54.00;;;;;;5112091;28;20109;-72
2022/07/29 01:07:25;;;;;;;0.28;0.10;;;21.10;54.00;;;;;;5111759;28;20380;-71
2022/07/29 01:09:51;;;;;;;0.20;0.10;;;21.10;54.10;;;;;;5111548;28;20054;-71
2022/07/29 01:12:19;;;;;;;0.68;0.40;;;21.10;54.10;;;;;;5111700;28;20044;-73
2022/07/29 01:14:46;;;;;;;0.38;0.10;;;21.10;54.00;;;;;;5111987;28;20421;-71
2022/07/29 01:17:42;;;;;;;0.57;0.10;;;21.00;54.00;;;;;;5111548;28;20073;-71
2022/07/29 01:25:58;;;;;;;0.40;0.15;;;21.10;54.10;;;;;;5130240;27;20759;-72
2022/07/29 01:34:25;;;;;;;0.40;0.10;;;21.10;54.10;;;;;;5089342;28;20429;-71
2022/07/29 01:36:57;;;;;;;0.35;0.10;;;21.00;54.00;;;;;;5088451;28;20426;-74
2022/07/29 01:39:29;;;;;;;0.47;0.20;;;21.10;54.10;;;;;;5089461;28;20411;-72
2022/07/29 01:42:06;;;;;;;0.30;0.10;;;21.00;54.20;;;;;;5088372;28;20460;-71
2022/07/29 01:44:39;;;;;;;0.52;0.10;;;21.00;54.00;;;;;;5087932;28;20066;-71
2022/07/29 01:47:12;;;;;;;0.55;0.10;;;21.00;54.00;;;;;;5104941;28;20052;-71
2022/07/29 01:49:45;;;;;;;0.40;0.10;;;21.00;54.10;;;;;;5104811;28;20040;-71
2022/07/29 01:52:19;;;;;;;0.05;0.00;;;21.00;54.00;;;;;;5089184;28;20070;-71
2022/07/29 01:54:52;;;;;;;0.98;0.10;;;21.00;54.00;;;;;;5089003;28;20044;-71
2022/07/29 01:57:19;;;;;;;0.80;0.10;;;21.00;54.00;;;;;;5087815;28;20041;-71
2022/07/29 01:59:48;;;;;;;0.20;0.10;;;21.00;54.10;;;;;;5104708;28;20047;-71
2022/07/29 02:02:17;;;;;;;0.65;0.10;;;21.00;54.10;;;;;;5087704;28;20390;-71
2022/07/29 02:04:48;;;;;;;0.10;0.00;;;21.00;54.00;;;;;;5104551;28;20089;-71
2022/07/29 02:07:17;;;;;;;0.28;0.10;;;21.00;54.10;;;;;;5087888;28;20051;-71
2022/07/29 02:09:45;;;;;;;1.30;0.10;;;21.00;54.10;;;;;;5088689;28;20044;-71
2022/07/29 02:12:13;;;;;;;0.20;0.10;;;21.00;54.10;;;;;;5087475;28;20044;-71
2022/07/29 02:14:43;;;;;;;0.22;0.10;;;21.00;54.10;;;;;;5087678;28;20062;-71
2022/07/29 02:17:11;;;;;;;0.20;0.10;;;21.00;54.10;;;;;;5088749;28;20030;-71
2022/07/29 02:19:38;;;;;;;0.20;0.15;;;21.00;54.10;;;;;;5088491;28;20069;-71
2022/07/29 02:22:06;;;;;;;0.20;0.05;;;21.00;54.10;;;;;;5087249;28;20044;-71
2022/07/29 02:24:33;;;;;;;0.57;0.10;;;21.00;54.10;;;;;;5087217;28;20115;-71
2022/07/29 02:27:00;;;;;;;0.32;0.10;;;21.00;54.10;;;;;;5087208;28;20040;-71
2022/07/29 02:29:28;;;;;;;0.75;0.10;;;21.00;54.10;;;;;;5087137;28;20040;-71
2022/07/29 02:31:56;;;;;;;0.57;0.15;;;21.00;54.10;;;;;;5088106;28;20056;-71
2022/07/29 02:34:23;;;;;;;0.40;0.10;;;21.00;54.10;;;;;;5087105;28;20119;-71
2022/07/29 02:36:49;;;;;;;0.55;0.10;;;21.00;54.10;;;;;;5088238;28;20476;-71
2022/07/29 02:39:15;;;;;;;0.52;0.10;;;21.00;54.10;;;;;;5070030;28;20037;-71
2022/07/29 02:41:46;;;;;;;0.70;0.10;;;21.00;54.10;;;;;;5086953;28;20050;-71
2022/07/29 02:44:15;;;;;;;0.40;0.08;;;21.00;54.10;;;;;;5081473;28;20472;-71
2022/07/29 02:46:49;;;;;;;0.55;0.10;;;21.00;54.10;;;;;;5073768;28;20127;-71
2022/07/29 02:49:36;;;;;;;0.25;0.10;;;21.00;54.10;;;;;;5074613;28;20124;-71
2022/07/29 02:52:06;;;;;;;0.17;0.08;;;20.90;54.10;;;;;;5072996;28;20037;-71
2022/07/29 02:54:39;;;;;;;0.45;0.32;;;21.00;54.10;;;;;;5073506;28;20113;-71
2022/07/29 02:57:13;;;;;;;0.20;0.10;;;20.90;54.10;;;;;;5073430;28;20044;-71
2022/07/29 02:59:43;;;;;;;0.45;0.10;;;20.90;54.10;;;;;;5073151;28;20040;-72
2022/07/29 03:02:10;;;;;;;0.20;0.10;;;21.00;54.90;;;;;;5073237;28;20450;-71
2022/07/29 03:04:39;;;;;;;0.30;0.10;;;20.90;54.10;;;;;;5073065;28;20074;-71
2022/07/29 03:07:05;;;;;;;0.30;0.10;;;20.90;54.10;;;;;;5073157;28;20040;-71
2022/07/29 03:09:32;;;;;;;0.85;0.10;;;20.90;54.20;;;;;;5072922;28;20040;-71
2022/07/29 03:11:58;;;;;;;0.68;0.10;;;20.90;54.20;;;;;;5072793;28;20045;-71
2022/07/29 03:14:25;;;;;;;0.30;0.10;;;20.90;54.10;;;;;;5074200;28;20404;-71
2022/07/29 03:16:51;;;;;;;0.22;0.10;;;20.90;54.20;;;;;;5072700;28;20041;-71
2022/07/29 03:19:18;;;;;;;0.90;0.10;;;20.90;54.20;;;;;;5073087;28;20388;-71
2022/07/29 03:21:43;;;;;;;1.15;0.10;;;20.90;54.10;;;;;;5072839;28;20053;-71
2022/07/29 03:24:09;;;;;;;0.32;0.10;;;20.90;54.20;;;;;;5072670;28;20049;-71
2022/07/29 03:26:35;;;;;;;0.30;0.10;;;20.90;54.10;;;;;;5073896;28;20036;-71
2022/07/29 03:29:00;;;;;;;0.52;0.10;;;20.90;54.20;;;;;;5072622;28;20378;-74
2022/07/29 03:31:26;;;;;;;0.30;0.10;;;20.90;54.20;;;;;;5073689;28;20028;-72
2022/07/29 03:33:52;;;;;;;0.30;0.10;;;20.90;54.20;;;;;;5072248;28;20041;-71
2022/07/29 03:36:17;;;;;;;0.20;0.10;;;20.90;54.20;;;;;;5073842;28;20078;-71
2022/07/29 03:38:45;;;;;;;0.93;0.15;;;20.90;54.20;;;;;;5072474;28;20039;-71
2022/07/29 03:41:14;;;;;;;0.30;0.10;;;20.90;54.20;;;;;;5072326;28;20086;-71
2022/07/29 03:43:42;;;;;;;0.52;0.10;;;20.90;54.20;;;;;;5072347;28;20084;-71
2022/07/29 03:46:09;;;;;;;0.38;0.10;;;20.90;54.20;;;;;;5072168;28;20123;-71
2022/07/29 03:48:39;;;;;;;0.30;0.10;;;20.80;54.20;;;;;;5072443;28;20045;-71
2022/07/29 03:51:05;;;;;;;0.77;0.20;;;20.80;54.20;;;;;;5072418;28;20044;-74
2022/07/29 03:53:34;;;;;;;0.20;0.10;;;20.90;54.20;;;;;;5072012;28;20306;-71
2022/07/29 03:56:02;;;;;;;0.52;0.10;;;20.90;54.20;;;;;;5071307;28;20025;-71
2022/07/29 03:58:29;;;;;;;0.50;0.10;;;20.80;54.20;;;;;;5072185;28;20036;-71
2022/07/29 04:00:56;;;;;;;0.30;0.10;;;20.80;54.20;;;;;;5071885;28;20476;-71
2022/07/29 04:03:22;;;;;;;0.20;0.10;;;20.80;54.20;;;;;;5071821;28;20078;-71
2022/07/29 04:05:59;;;;;;;0.20;0.10;;;20.80;54.20;;;;;;5072129;28;20059;-71
2022/07/29 04:08:25;;;;;;;0.20;0.00;;;20.80;54.20;;;;;;5071976;28;20040;-71
2022/07/29 04:10:52;;;;;;;0.93;0.10;;;20.80;54.20;;;;;;5071735;28;20568;-71
2022/07/29 04:13:18;;;;;;;0.30;0.10;;;20.80;54.20;;;;;;5071721;28;20044;-72
2022/07/29 04:15:44;;;;;;;0.35;0.10;;;20.80;54.20;;;;;;5071645;28;20044;-71
2022/07/29 04:18:10;;;;;;;0.40;0.10;;;20.80;54.20;;;;;;5071607;28;20040;-71
2022/07/29 04:20:35;;;;;;;0.40;0.10;;;20.80;54.30;;;;;;5071749;28;20036;-71
2022/07/29 04:23:01;;;;;;;0.47;0.10;;;20.80;54.20;;;;;;5071442;28;20458;-71
2022/07/29 04:25:26;;;;;;;0.20;0.10;;;20.80;54.30;;;;;;5071755;28;20048;-71
2022/07/29 04:28:07;;;;;;;0.35;0.20;;;20.80;54.20;;;;;;5072642;28;20048;-71
2022/07/29 04:30:34;;;;;;;0.63;0.10;;;20.80;55.00;;;;;;5071607;28;20045;-72
2022/07/29 04:33:02;;;;;;;0.60;0.10;;;20.80;54.20;;;;;;5072280;28;20063;-71
2022/07/29 04:35:29;;;;;;;0.60;0.10;;;20.80;54.30;;;;;;5071268;28;20041;-71
2022/07/29 04:37:54;;;;;;;0.28;0.10;;;20.70;54.20;;;;;;5071488;28;20032;-71
2022/07/29 04:40:20;;;;;;;0.75;0.22;;;20.80;54.30;;;;;;5072481;28;20496;-71
2022/07/29 04:42:46;;;;;;;0.40;0.10;;;20.70;54.20;;;;;;5071394;28;20369;-71
2022/07/29 04:45:11;;;;;;;0.30;0.05;;;20.80;54.30;;;;;;5070930;28;20040;-71
2022/07/29 04:47:37;;;;;;;0.30;0.10;;;20.80;54.30;;;;;;5071091;28;20032;-71
2022/07/29 04:50:03;;;;;;;0.22;0.10;;;20.70;54.20;;;;;;5070888;28;20044;-71
2022/07/29 04:52:29;;;;;;;0.30;0.10;;;20.70;54.30;;;;;;5070870;28;20063;-71
2022/07/29 04:54:54;;;;;;;2.20;0.10;;;20.80;54.30;;;;;;5072209;28;20032;-71
2022/07/29 04:57:20;;;;;;;0.32;0.10;;;20.70;54.30;;;;;;5071178;28;20039;-71
2022/07/29 04:59:45;;;;;;;0.25;0.08;;;20.80;54.30;;;;;;5070807;28;20072;-71
2022/07/29 05:02:11;;;;;;;0.50;0.10;;;20.80;54.30;;;;;;5072021;28;20082;-71
2022/07/29 05:04:37;;;;;;;0.28;0.10;;;20.80;54.30;;;;;;5072159;28;20041;-71
2022/07/29 05:07:02;;;;;;;0.70;0.10;;;20.70;54.30;;;;;;5070544;28;20036;-71
2022/07/29 05:09:28;;;;;;;0.20;0.10;;;20.70;54.30;;;;;;5070954;28;20044;-72
2022/07/29 05:11:53;;;;;;;0.30;0.10;;;20.70;54.30;;;;;;5070738;28;20082;-71
2022/07/29 05:14:19;;;;;;;0.50;0.20;;;20.70;54.20;;;;;;5071755;28;20123;-72
2022/07/29 05:16:45;;;;;;;0.20;0.10;;;20.70;54.30;;;;;;5070667;28;20037;-71
2022/07/29 05:19:11;;;;;;;0.70;0.10;;;20.70;54.30;;;;;;5071905;28;20040;-71
2022/07/29 05:21:36;;;;;;;0.75;0.10;;;20.70;54.30;;;;;;5070598;28;20040;-72
2022/07/29 05:24:02;;;;;;;0.28;0.13;;;20.70;54.30;;;;;;5070855;28;20043;-71
2022/07/29 05:26:28;;;;;;;0.20;0.10;;;20.70;54.30;;;;;;5070804;28;20043;-71
2022/07/29 05:28:54;;;;;;;0.38;0.10;;;20.70;54.30;;;;;;5070589;28;20052;-71
2022/07/29 05:31:20;;;;;;;1.30;0.10;;;20.70;54.30;;;;;;5070527;28;20051;-71
2022/07/29 05:33:46;;;;;;;0.52;0.10;;;20.70;54.30;;;;;;5070099;28;20052;-71
2022/07/29 05:36:11;;;;;;;0.30;0.10;;;20.70;54.30;;;;;;5070639;28;20075;-71
2022/07/29 05:38:37;;;;;;;1.00;0.10;;;20.70;54.30;;;;;;5070515;28;20044;-71
2022/07/29 05:41:04;;;;;;;0.20;0.10;;;20.70;54.30;;;;;;5070331;28;20094;-71
2022/07/29 05:43:29;;;;;;;1.15;0.17;;;20.70;54.30;;;;;;5070722;28;20050;-71
2022/07/29 05:45:56;;;;;;;0.40;0.10;;;20.70;54.30;;;;;;5072020;28;20119;-72
2022/07/29 05:48:21;;;;;;;0.52;0.10;;;20.70;54.30;;;;;;5070667;28;20044;-71
2022/07/29 05:50:47;;;;;;;1.02;0.13;;;20.70;54.30;;;;;;5070328;28;20093;-72
2022/07/29 05:53:13;;;;;;;0.52;0.10;;;20.70;54.30;;;;;;5070334;28;20078;-71
2022/07/29 05:55:38;;;;;;;0.57;0.20;;;20.70;54.30;;;;;;5070243;28;20043;-71
2022/07/29 05:58:04;;;;;;;0.50;0.10;;;20.70;55.00;;;;;;5071576;28;20052;-71
2022/07/29 06:00:30;;;;;;;0.30;0.10;;;20.70;54.30;;;;;;5070492;28;20037;-71
2022/07/29 06:02:56;;;;;;;0.90;0.10;;;20.70;54.30;;;;;;5071701;28;20388;-71
2022/07/29 06:05:22;;;;;;;0.65;0.10;;;20.70;54.30;;;;;;5070485;28;20055;-71
2022/07/29 06:07:48;;;;;;;0.35;0.20;;;20.70;54.30;;;;;;5069584;28;20384;-71
2022/07/29 06:10:14;;;;;;;0.80;0.20;;;20.70;54.30;;;;;;5070115;28;20044;-70
2022/07/29 06:12:40;;;;;;;2.15;0.20;;;20.70;54.30;;;;;;5071463;28;20068;-69
2022/07/29 06:15:06;;;;;;;1.67;0.25;;;20.70;54.30;;;;;;5070157;28;20037;-70
2022/07/29 06:17:31;;;;;;;0.40;0.10;;;20.80;54.40;;;;;;5070041;28;20041;-69
2022/07/29 06:19:57;;;;;;;0.50;0.20;;;20.80;54.40;;;;;;5071907;28;20042;-70
2022/07/29 06:22:23;;;;;;;0.40;0.10;;;20.80;54.40;;;;;;5073705;28;20044;-70
2022/07/29 06:24:49;;;;;;;0.82;0.10;;;20.90;54.50;;;;;;5074095;28;20383;-68
2022/07/29 06:27:16;;;;;;;0.30;0.10;;;20.90;54.50;;;;;;5074974;28;20135;-68
2022/07/29 06:29:42;;;;;;;0.30;0.10;;;20.90;54.60;;;;;;5074985;28;20032;-70
2022/07/29 06:32:09;;;;;;;0.43;0.20;;;20.90;54.60;;;;;;5073500;28;20071;-69
2022/07/29 06:34:35;;;;;;;7.20;0.82;;;20.90;54.60;;;;;;5072334;28;20048;-69
2022/07/29 06:37:07;;;;;;;1.02;0.40;;;21.00;54.70;;;;;;5070731;28;20036;-71
2022/07/29 06:39:35;;;;;;;0.68;0.20;;;21.00;54.70;;;;;;5070209;28;20059;-70
2022/07/29 06:42:01;;;;;;;1.25;0.10;;;21.00;54.60;;;;;;5072213;28;20055;-70
2022/07/29 06:44:26;;;;;;;0.38;0.17;;;21.00;54.50;;;;;;5070862;28;20044;-71
2022/07/29 06:46:52;;;;;;;1.02;0.10;;;21.00;54.50;;;;;;5072577;28;20024;-71
2022/07/29 06:49:21;;;;;;;0.65;0.10;;;21.00;54.50;;;;;;5073536;28;20434;-71
2022/07/29 06:51:47;;;;;;;0.43;0.10;;;21.00;54.50;;;;;;5073207;28;20043;-71
2022/07/29 06:54:12;;;;;;;2.42;0.22;;;21.00;54.50;;;;;;5072296;28;20040;-71
2022/07/29 06:56:41;;;;;;;0.85;0.10;;;21.00;54.50;;;;;;5072648;28;20032;-71
2022/07/29 06:59:09;;;;;;;0.47;0.10;;;21.00;54.50;;;;;;5074225;28;20085;-71
2022/07/29 07:01:37;;;;;;;1.27;0.10;;;21.10;54.60;;;;;;5071836;28;20127;-70
2022/07/29 07:04:03;;;;;;;1.42;0.20;;;21.10;54.60;;;;;;5072199;28;20489;-73
2022/07/29 07:06:28;;;;;;;1.30;0.10;;;21.10;54.70;;;;;;5072969;28;20082;-72
2022/07/29 07:08:54;;;;;;;0.95;0.20;;;21.10;54.70;;;;;;5073135;28;20498;-71
2022/07/29 07:11:20;;;;;;;0.70;0.20;;;21.10;54.80;;;;;;5073034;28;20123;-72
2022/07/29 07:13:45;;;;;;;0.90;0.13;;;21.10;54.90;;;;;;5071229;28;20392;-71
2022/07/29 07:16:11;;;;;;;0.45;0.20;;;21.20;54.90;;;;;;5072939;28;20052;-72
2022/07/29 07:18:36;;;;;;;1.75;0.20;;;21.20;54.90;;;;;;5073087;28;20071;-70
2022/07/29 07:21:04;;;;;;;1.10;0.40;;;21.20;54.90;;;;;;5074014;28;20045;-70
2022/07/29 07:23:30;;;;;;;0.60;0.20;;;21.20;54.90;;;;;;5071421;28;20515;-71
2022/07/29 07:25:56;;;;;;;0.73;0.15;;;21.30;54.90;;;;;;5074059;28;20037;-71
2022/07/29 07:28:21;;;;;;;5.43;0.20;;;21.30;54.90;;;;;;5072884;28;20488;-70
2022/07/29 07:30:47;;;;;;;0.88;0.15;;;21.30;54.90;;;;;;5072356;28;20178;-70
2022/07/29 07:33:14;;;;;;;1.30;0.20;;;21.30;54.90;;;;;;5055585;28;20048;-70
2022/07/29 07:35:40;;;;;;;0.98;0.20;;;21.30;54.80;;;;;;5071356;28;20044;-70
2022/07/29 07:38:06;;;;;;;0.85;0.20;;;21.30;54.80;;;;;;5071405;28;20072;-70
2022/07/29 07:40:31;;;;;;;1.23;0.20;;;21.40;54.90;;;;;;5071548;28;20075;-73
2022/07/29 07:42:57;;;;;;;0.47;0.17;;;21.40;54.90;;;;;;5071096;28;20033;-70
2022/07/29 07:45:23;;;;;;;1.35;0.20;;;21.40;54.80;;;;;;5070311;28;20036;-70
2022/07/29 07:47:49;;;;;;;1.85;0.30;;;21.40;54.70;;;;;;5069295;28;20642;-70
2022/07/29 07:50:17;;;;;;;3.67;0.38;;;21.40;54.60;;;;;;5069399;28;20139;-70
2022/07/29 07:52:52;;;;;;;0.80;0.20;;;21.30;54.50;;;;;;5068532;28;20032;-69
2022/07/29 07:55:18;;;;;;;0.40;0.20;;;21.40;54.50;;;;;;5075467;28;20040;-70
2022/07/29 07:57:44;;;;;;;0.95;0.28;;;21.40;54.50;;;;;;5077559;28;20040;-70
2022/07/29 08:00:12;;;;;;;0.65;0.17;;;21.30;54.40;;;;;;5056147;28;20040;-71
2022/07/29 08:02:38;;;;;;;1.25;0.10;;;21.30;54.50;;;;;;5056151;28;20045;-70
2022/07/29 08:05:05;;;;;;;2.03;0.10;;;21.30;54.40;;;;;;5057858;28;20139;-70
2022/07/29 08:07:31;;;;;;;4.55;0.30;;;21.30;54.50;;;;;;5059209;28;20044;-69
2022/07/29 08:09:56;;;;;;;0.73;0.15;;;21.30;54.40;;;;;;5067771;28;20399;-69
2022/07/29 08:12:22;;;;;;;1.35;0.13;;;21.30;54.40;;;;;;5059136;28;20587;-69
2022/07/29 08:14:48;;;;;;;1.92;0.20;;;21.30;54.50;;;;;;5057146;28;20033;-70
2022/07/29 08:17:13;;;;;;;1.38;0.17;;;21.30;54.50;;;;;;5055505;28;20069;-69
2022/07/29 08:19:39;;;;;;;1.05;0.20;;;21.30;54.50;;;;;;5059010;28;20029;-70
2022/07/29 08:22:05;;;;;;;1.38;0.20;;;21.30;54.50;;;;;;5054681;28;20045;-69
2022/07/29 08:24:59;;;;;;;0.85;0.10;;;21.30;54.50;;;;;;5056724;28;20041;-73
2022/07/29 08:27:17;;;;;;;0.80;0.20;;;21.30;54.70;;;;;;5059458;28;20495;-73
2022/07/29 08:29:43;;;;;;;1.90;0.30;;;21.20;54.70;;;;;;5056584;28;20385;-73
2022/07/29 08:32:08;;;;;;;1.15;0.20;;;21.30;54.80;;;;;;5055648;28;20083;-73
2022/07/29 08:34:34;;;;;;;2.05;0.20;;;21.20;54.70;;;;;;5056918;28;20048;-73
2022/07/29 08:37:00;;;;;;;0.68;0.20;;;21.30;54.80;;;;;;5058606;28;20037;-73
2022/07/29 08:39:26;;;;;;;1.02;0.25;;;21.30;54.80;;;;;;5073673;28;20039;-73
2022/07/29 08:41:52;;;;;;;2.40;0.30;;;21.30;54.80;;;;;;5045295;28;20049;-72
2022/07/29 08:44:19;;;;;;;0.35;0.20;;;21.20;54.70;;;;;;5055077;28;20480;-72
2022/07/29 08:46:45;;;;;;;1.88;0.20;;;21.20;54.70;;;;;;5071575;28;20087;-73
2022/07/29 08:49:11;;;;;;;3.20;0.20;;;21.20;54.70;;;;;;5057360;28;20049;-72
2022/07/29 08:51:38;;;;;;;2.20;0.10;;;21.30;54.90;;;;;;5058613;28;20037;-69
2022/07/29 08:54:06;;;;;;;1.08;0.30;;;21.20;54.90;;;;;;5056155;28;20119;-69
2022/07/29 08:56:33;;;;;;;1.80;0.20;;;21.30;54.90;;;;;;5057060;28;20048;-68
2022/07/29 08:59:01;;;;;;;0.85;0.30;;;21.30;55.00;;;;;;5065523;28;20503;-70
2022/07/29 09:01:30;;;;;;;3.30;0.30;;;21.20;55.00;;;;;;5072162;28;20123;-70
2022/07/29 09:03:56;;;;;;;2.30;0.20;;;21.20;55.10;;;;;;5055927;28;20072;-71
2022/07/29 09:06:26;;;;;;;1.80;0.20;;;21.30;55.20;;;;;;5055065;28;20045;-70
2022/07/29 09:08:52;;;;;;;2.63;0.32;;;21.20;55.20;;;;;;5056143;28;20033;-71
2022/07/29 09:11:18;;;;;;;1.02;0.40;;;21.20;55.20;;;;;;5058030;28;20079;-70
2022/07/29 09:13:43;;;;;;;2.38;0.30;;;21.20;55.20;;;;;;5059028;28;20040;-68
2022/07/29 09:16:09;;;;;;;4.25;0.40;;;21.20;55.20;;;;;;5060013;28;20075;-66
2022/07/29 09:18:42;;;;;;;2.60;0.20;;;21.20;55.30;;;;;;5059563;28;20033;-67
2022/07/29 09:26:40;;;;;;;2.08;0.20;;;21.20;55.50;;;;;;5112139;27;20777;-67
2022/07/29 09:29:10;;;;;;;2.63;0.30;;;21.30;55.70;;;;;;5095371;28;20139;-67
2022/07/29 09:31:38;;;;;;;1.00;0.25;;;21.30;55.90;;;;;;5110263;28;20506;-67
2022/07/29 09:34:05;;;;;;;3.95;0.30;;;21.30;56.10;;;;;;5095239;28;20086;-66
2022/07/29 09:36:30;;;;;;;1.23;0.30;;;21.30;56.20;;;;;;5101091;28;20101;-69
2022/07/29 09:38:59;;;;;;;1.80;0.20;;;21.30;56.10;;;;;;5094902;28;20246;-68
2022/07/29 09:41:25;;;;;;;1.83;0.20;;;21.30;56.10;;;;;;5092085;28;20040;-68
2022/07/29 09:43:57;;;;;;;1.25;0.20;;;21.30;56.20;;;;;;5112488;27;20062;-68
2022/07/29 09:46:24;;;;;;;1.00;0.30;;;21.30;56.30;;;;;;5094564;28;20117;-68
2022/07/29 09:49:10;;;;;;;4.15;0.50;;;21.40;56.30;;;;;;5102495;28;20063;-69
2022/07/29 09:51:36;;;;;;;0.98;0.20;;;21.30;56.40;;;;;;5099702;28;20391;-68
2022/07/29 09:54:22;;;;;;;1.30;0.20;;;21.40;56.40;;;;;;5118913;28;20039;-71
2022/07/29 09:56:47;;;;;;;1.65;0.32;;;21.40;56.70;;;;;;5109354;28;20039;-72
2022/07/29 09:59:13;;;;;;;9.45;0.77;;;21.40;56.80;;;;;;5107321;28;20044;-70
2022/07/29 10:01:39;;;;;;;1.38;0.40;;;21.40;57.00;;;;;;5107720;28;20042;-70
2022/07/29 10:04:05;;;;;;;7.25;0.35;;;21.40;57.00;;;;;;5109051;28;20036;-70
2022/07/29 10:06:31;;;;;;;3.35;0.35;;;21.40;57.00;;;;;;5107448;28;20044;-71
2022/07/29 10:09:12;;;;;;;5.35;0.43;;;21.40;57.00;;;;;;5107456;28;20411;-71
2022/07/29 10:11:38;;;;;;;4.68;0.35;;;21.40;57.10;;;;;;5111128;28;20364;-70
2022/07/29 10:14:04;;;;;;;4.72;0.50;;;21.40;57.00;;;;;;5090539;28;20097;-71
2022/07/29 10:16:33;;;;;;;5.28;0.40;;;21.40;57.10;;;;;;5110975;28;20051;-69
2022/07/29 10:19:00;;;;;;;2.38;0.68;;;21.40;57.10;;;;;;5107368;28;20040;-69
2022/07/29 10:21:27;;;;;;;4.20;0.20;;;21.40;57.80;;;;;;5107357;28;20048;-69
2022/07/29 10:23:53;;;;;;;4.07;0.40;;;21.40;57.10;;;;;;5108372;28;20039;-69
2022/07/29 10:26:20;;;;;;;2.72;0.43;;;21.40;57.10;;;;;;5106744;28;20043;-69
2022/07/29 10:28:45;;;;;;;4.03;0.20;;;21.40;57.20;;;;;;5108529;28;20032;-70
2022/07/29 10:31:23;;;;;;;2.05;0.30;;;21.40;57.30;;;;;;5108437;28;20425;-69
2022/07/29 10:34:28;;;;;;;3.38;0.30;;;21.40;57.30;;;;;;5114462;28;20378;-70
2022/07/29 10:37:22;;;;;;;3.90;0.30;;;21.50;57.40;;;;;;5105518;28;20126;-70
2022/07/29 10:43:14;;;;;;;2.28;0.60;;;21.50;57.50;;;;;;5098256;28;20119;-70
2022/07/29 10:45:40;;;;;;;0.90;0.20;;;21.50;57.40;;;;;;5101346;28;20426;-71
2022/07/29 10:48:06;;;;;;;1.75;0.22;;;21.50;57.40;;;;;;5100201;28;20032;-71
2022/07/29 10:50:54;;;;;;;2.92;0.30;;;21.50;57.30;;;;;;5098681;28;20055;-71
2022/07/29 10:53:19;;;;;;;1.58;0.22;;;21.50;57.40;;;;;;5130639;27;20046;-71
2022/07/29 10:55:48;;;;;;;8.02;0.55;;;21.50;57.30;;;;;;5096083;28;20395;-75
2022/07/29 10:58:18;;;;;;;3.05;0.43;;;21.50;57.40;;;;;;5094015;28;20054;-71
2022/07/29 11:00:47;;;;;;;5.22;0.45;;;21.50;57.30;;;;;;5092874;28;20394;-70
2022/07/29 11:03:49;;;;;;;1.90;0.47;;;21.50;57.30;;;;;;5106940;28;20537;-70
2022/07/29 11:06:15;;;;;;;2.20;0.30;;;21.60;57.50;;;;;;5115204;27;20484;-73
2022/07/29 11:08:41;;;;;;;2.67;0.30;;;21.60;57.40;;;;;;5102856;28;20236;-72
2022/07/29 11:14:15;;;;;;;2.85;0.32;;;21.60;58.20;;;;;;5108790;27;20814;-70
2022/07/29 11:17:02;;;;;;;1.35;0.57;;;21.60;57.30;;;;;;5106783;28;20532;-70
2022/07/29 11:19:28;;;;;;;1.75;0.35;;;21.60;57.40;;;;;;5107531;28;20038;-70
2022/07/29 11:21:54;;;;;;;1.52;0.30;;;21.60;57.30;;;;;;5107199;28;20085;-70
2022/07/29 11:24:23;;;;;;;0.73;0.20;;;21.60;57.20;;;;;;5107926;28;20032;-71
2022/07/29 11:27:10;;;;;;;2.85;0.30;;;21.70;57.40;;;;;;5108018;28;20478;-72
2022/07/29 11:29:40;;;;;;;4.05;0.40;;;21.70;57.60;;;;;;5106459;28;20070;-68
2022/07/29 11:32:11;;;;;;;2.80;0.30;;;21.70;57.60;;;;;;5107081;28;20035;-70
2022/07/29 11:34:40;;;;;;;4.28;0.30;;;21.70;57.60;;;;;;5106941;28;20035;-69
2022/07/29 11:45:18;;;;;;;4.22;0.30;;;21.70;57.50;;;;;;5130383;27;20353;-69
2022/07/29 11:50:40;;;;;;;2.83;0.40;;;21.70;57.50;;;;;;5129634;27;20350;-71
2022/07/29 11:53:13;;;;;;;4.30;0.43;;;21.80;57.70;;;;;;5108223;28;20127;-68
2022/07/29 11:55:40;;;;;;;2.25;0.40;;;21.80;57.70;;;;;;5110147;27;20555;-69
2022/07/29 11:58:06;;;;;;;3.67;0.40;;;21.80;57.70;;;;;;5146075;27;20085;-69
2022/07/29 12:00:34;;;;;;;3.10;0.35;;;21.70;57.70;;;;;;5128635;28;20035;-70
2022/07/29 12:03:03;;;;;;;4.25;0.90;;;21.80;57.70;;;;;;5129185;28;20068;-68
2022/07/29 12:08:19;;;;;;;2.67;0.38;;;21.80;57.90;;;;;;5138365;27;1385883;-79
2022/07/29 12:10:47;;;;;;;4.53;0.77;;;21.80;57.90;;;;;;5152448;27;20043;-67
2022/07/29 12:13:14;;;;;;;4.68;0.45;;;21.90;58.00;;;;;;5171262;27;20381;-69
2022/07/29 12:15:40;;;;;;;1.35;0.50;;;21.90;58.00;;;;;;5153330;27;20435;-68
2022/07/29 12:18:11;;;;;;;2.45;0.60;;;21.90;58.10;;;;;;5152831;27;20038;-68
2022/07/29 12:20:36;;;;;;;;;;;21.90;58.20;;;;;;5143167;27;20049;-69
2022/07/29 12:23:07;;;;;;;2.42;0.60;;;21.90;58.20;;;;;;5149834;27;19915;-69
2022/07/29 12:25:35;;;;;;;2.28;0.40;;;22.00;57.90;;;;;;5152260;27;20423;-69
2022/07/29 12:28:04;;;;;;;1.88;0.30;;;22.00;57.80;;;;;;5152783;27;20248;-69
2022/07/29 12:30:48;;;;;;;2.08;0.30;;;22.10;57.70;;;;;;5152539;27;20505;-70
2022/07/29 12:36:00;;;;;;;2.17;0.40;;;22.00;57.40;;;;;;5129683;27;20353;-69
2022/07/29 12:38:27;;;;;;;3.58;0.40;;;22.00;57.40;;;;;;5123962;28;20059;-69
2022/07/29 12:40:53;;;;;;;1.67;0.47;;;22.10;57.50;;;;;;5124099;28;20043;-70
2022/07/29 12:43:21;;;;;;;1.15;0.35;;;22.00;57.50;;;;;;5125683;27;20043;-69
2022/07/29 12:45:49;;;;;;;1.77;0.65;;;22.10;57.60;;;;;;5121046;28;20123;-69
2022/07/29 12:48:16;;;;;;;2.80;0.50;;;22.10;57.60;;;;;;5111988;28;20043;-71
2022/07/29 12:50:59;;;;;;;0.85;0.20;;;22.10;57.60;;;;;;5114063;28;20053;-71
2022/07/29 12:53:26;;;;;;;1.45;0.40;;;22.20;57.60;;;;;;5096690;28;20035;-68
2022/07/29 12:55:54;;;;;;;1.95;0.75;;;22.20;57.40;;;;;;5125381;28;20043;-69
2022/07/29 12:58:41;;;;;;;2.67;0.47;;;22.20;57.20;;;;;;5113593;28;20039;-69
2022/07/29 13:01:14;;;;;;;0.70;0.20;;;22.20;57.00;;;;;;5115169;28;20040;-69
2022/07/29 13:03:58;;;;;;;1.70;0.30;;;22.20;57.00;;;;;;5111355;27;20039;-69
2022/07/29 13:09:24;;;;;;;3.67;0.50;;;22.20;57.40;;;;;;5130322;27;20185;-72
2022/07/29 13:11:52;;;;;;;1.70;0.40;;;22.20;57.30;;;;;;5129634;27;20047;-68
2022/07/29 13:14:38;;;;;;;3.33;0.30;;;22.30;57.30;;;;;;5127004;28;20054;-70
2022/07/29 13:17:22;;;;;;;2.45;0.30;;;22.30;57.40;;;;;;5126200;28;20034;-71
2022/07/29 13:19:51;;;;;;;4.20;0.30;;;22.30;57.30;;;;;;5127851;27;20042;-71
2022/07/29 13:22:19;;;;;;;1.73;0.30;;;22.30;57.40;;;;;;5127965;28;20042;-68
2022/07/29 13:27:29;;;;;;;1.98;0.55;;;22.30;57.20;;;;;;5130011;27;20398;-69
2022/07/29 13:29:57;;;;;;;5.30;0.40;;;22.30;57.10;;;;;;5127991;28;20429;-70
2022/07/29 13:32:24;;;;;;;1.83;0.30;;;22.30;57.10;;;;;;5128839;27;20036;-69
2022/07/29 13:34:49;;;;;;;2.33;0.28;;;22.30;57.10;;;;;;5128775;28;20490;-70
2022/07/29 13:37:16;;;;;;;0.90;0.28;;;22.30;57.30;;;;;;5129573;28;20061;-71
2022/07/29 13:39:42;;;;;;;0.90;0.22;;;22.30;57.30;;;;;;5130197;27;20042;-69